Time;durP1;ratioP1;P1;durP2;ratioP2;P2;SDS_P1;SDS_P2;PMS_P1;PMS_P2;Temp;Humidity;BMP_temperature;BMP_pressure;BME280_temperature;BME280_humidity;BME280_pressure;Samples;Min_cycle;Max_cycle;Signal;HPM_P1;HPM_P2
2022/04/25 00:00:35;;;;;;;16.07;10.83;;;9.10;99.90;;;;;;5053091;28;20178;-68
2022/04/25 00:03:01;;;;;;;13.00;10.23;;;9.10;99.90;;;;;;5052737;28;20195;-66
2022/04/25 00:05:28;;;;;;;15.73;10.17;;;9.10;99.90;;;;;;5053223;28;20164;-67
2022/04/25 00:07:54;;;;;;;14.87;10.67;;;9.20;99.90;;;;;;5053019;28;20520;-67
2022/04/25 00:10:20;;;;;;;13.43;10.20;;;9.10;99.90;;;;;;5053160;28;20161;-67
2022/04/25 00:12:46;;;;;;;12.57;9.33;;;9.10;99.90;;;;;;5061654;28;20218;-67
2022/04/25 00:15:12;;;;;;;14.07;9.13;;;9.10;99.90;;;;;;5044039;28;20255;-69
2022/04/25 00:17:38;;;;;;;13.40;9.20;;;9.10;99.90;;;;;;5064042;28;20184;-67
2022/04/25 00:20:05;;;;;;;12.47;8.40;;;9.10;99.90;;;;;;5071154;28;20172;-66
2022/04/25 00:22:31;;;;;;;10.33;8.67;;;9.20;99.90;;;;;;5065950;28;20176;-68
2022/04/25 00:24:57;;;;;;;12.40;8.73;;;9.30;99.90;;;;;;5056819;28;20187;-68
2022/04/25 00:27:25;;;;;;;12.80;8.57;;;9.20;99.90;;;;;;5056666;28;20184;-66
2022/04/25 00:29:51;;;;;;;11.87;8.40;;;9.20;99.90;;;;;;5056770;28;20262;-67
2022/04/25 00:32:16;;;;;;;10.40;7.97;;;9.20;99.90;;;;;;5056574;28;20279;-65
2022/04/25 00:34:42;;;;;;;11.57;8.97;;;9.30;99.90;;;;;;5056706;28;20192;-66
2022/04/25 00:37:07;;;;;;;12.53;8.00;;;9.20;99.90;;;;;;5039006;28;20542;-66
2022/04/25 00:39:33;;;;;;;11.77;8.23;;;9.20;99.90;;;;;;5056657;28;20153;-66
2022/04/25 00:41:59;;;;;;;12.03;8.10;;;9.10;99.90;;;;;;5056587;28;20570;-66
2022/04/25 00:44:25;;;;;;;10.17;7.87;;;9.10;99.90;;;;;;5056564;28;20273;-65
2022/04/25 00:46:55;;;;;;;9.60;7.73;;;9.10;99.90;;;;;;5072220;28;20670;-66
2022/04/25 00:49:23;;;;;;;12.13;7.53;;;9.10;99.90;;;;;;5075674;28;20200;-67
2022/04/25 00:51:51;;;;;;;10.63;7.87;;;9.10;99.90;;;;;;5075363;28;20228;-66
2022/04/25 00:54:18;;;;;;;11.73;8.30;;;9.20;99.90;;;;;;5075886;28;20155;-65
2022/04/25 00:56:44;;;;;;;11.70;8.17;;;9.10;99.90;;;;;;5076373;28;20167;-68
2022/04/25 00:59:10;;;;;;;12.73;9.00;;;9.20;99.90;;;;;;5075946;28;20166;-67
2022/04/25 01:01:35;;;;;;;11.63;8.33;;;9.00;99.90;;;;;;5076043;28;20167;-66
2022/04/25 01:04:02;;;;;;;12.63;8.40;;;9.10;99.90;;;;;;5076533;28;20245;-66
2022/04/25 01:06:28;;;;;;;14.80;8.53;;;9.10;99.90;;;;;;5079875;28;20160;-67
2022/04/25 01:08:53;;;;;;;10.97;8.00;;;9.20;99.90;;;;;;5076040;28;20686;-67
2022/04/25 01:11:19;;;;;;;14.10;8.53;;;9.20;99.90;;;;;;5076187;28;20168;-66
2022/04/25 01:13:45;;;;;;;11.73;8.90;;;9.10;99.90;;;;;;5076245;28;20171;-67
2022/04/25 01:16:10;;;;;;;12.57;8.50;;;9.10;99.90;;;;;;5076499;28;20175;-66
2022/04/25 01:18:36;;;;;;;10.47;8.07;;;9.20;99.90;;;;;;5076661;28;20217;-67
2022/04/25 01:21:05;;;;;;;10.13;8.43;;;9.20;99.90;;;;;;5075781;28;20210;-67
2022/04/25 01:29:01;;;;;;;10.97;8.20;;;9.10;99.90;;;;;;5075500;28;20617;-66
2022/04/25 01:31:27;;;;;;;11.37;8.30;;;9.20;99.90;;;;;;5077026;28;20294;-66
2022/04/25 01:33:53;;;;;;;14.20;8.67;;;9.10;99.90;;;;;;5077130;28;20597;-69
2022/04/25 01:36:25;;;;;;;10.90;8.27;;;9.10;99.90;;;;;;5081675;28;20274;-67
2022/04/25 01:38:54;;;;;;;11.57;8.00;;;9.20;99.90;;;;;;5079034;28;20186;-66
2022/04/25 01:41:20;;;;;;;10.63;7.80;;;9.20;99.90;;;;;;5078305;28;20160;-67
2022/04/25 01:43:46;;;;;;;11.10;8.50;;;9.20;99.90;;;;;;5078093;28;20179;-67
2022/04/25 01:46:12;;;;;;;10.83;8.10;;;9.20;99.90;;;;;;5063976;28;20231;-68
2022/04/25 01:48:37;;;;;;;11.43;8.60;;;9.20;99.90;;;;;;5038954;28;20206;-66
2022/04/25 01:51:03;;;;;;;11.40;7.57;;;9.30;99.90;;;;;;5056837;28;20163;-66
2022/04/25 01:53:29;;;;;;;12.17;8.80;;;9.20;99.90;;;;;;5058144;28;20175;-66
2022/04/25 01:55:55;;;;;;;11.83;8.17;;;9.30;99.90;;;;;;5059895;28;20247;-67
2022/04/25 01:58:21;;;;;;;9.57;7.80;;;9.20;99.90;;;;;;5044221;28;20180;-67
2022/04/25 02:00:46;;;;;;;10.43;8.30;;;9.30;99.90;;;;;;5059031;28;20478;-66
2022/04/25 02:03:13;;;;;;;11.00;8.10;;;9.50;99.90;;;;;;5055848;28;20167;-67
2022/04/25 02:05:39;;;;;;;10.47;7.77;;;9.30;99.90;;;;;;5055829;28;20195;-66
2022/04/25 02:08:05;;;;;;;11.83;8.40;;;9.30;99.90;;;;;;5054842;28;20164;-68
2022/04/25 02:10:31;;;;;;;13.37;7.93;;;9.30;99.90;;;;;;5060296;28;20168;-67
2022/04/25 02:12:56;;;;;;;11.63;8.10;;;9.30;99.90;;;;;;5069581;28;20200;-67
2022/04/25 02:15:22;;;;;;;11.60;8.57;;;9.30;99.90;;;;;;5057431;28;20160;-67
2022/04/25 02:17:48;;;;;;;12.27;8.07;;;9.40;99.90;;;;;;5055257;28;20171;-67
2022/04/25 02:20:14;;;;;;;13.10;8.77;;;9.40;99.90;;;;;;5055335;28;20263;-68
2022/04/25 02:22:40;;;;;;;9.87;8.07;;;9.40;99.90;;;;;;5055065;28;20255;-67
2022/04/25 02:25:06;;;;;;;12.07;8.63;;;9.30;99.90;;;;;;5054862;28;20166;-68
2022/04/25 02:27:32;;;;;;;9.53;7.57;;;9.40;99.90;;;;;;5054982;28;20494;-66
2022/04/25 02:29:58;;;;;;;9.90;8.10;;;9.30;99.90;;;;;;5058417;28;20164;-67
2022/04/25 02:32:28;;;;;;;11.23;8.30;;;9.30;99.90;;;;;;5055160;28;20218;-65
2022/04/25 02:34:57;;;;;;;10.20;7.67;;;9.30;99.90;;;;;;5054600;28;20175;-66
2022/04/25 02:37:23;;;;;;;9.60;7.77;;;9.40;99.90;;;;;;5055068;28;20186;-66
2022/04/25 02:39:49;;;;;;;10.20;7.27;;;9.40;99.90;;;;;;5053468;28;20192;-67
2022/04/25 02:42:16;;;;;;;9.07;7.43;;;9.40;99.90;;;;;;5054262;28;20203;-67
2022/04/25 02:44:42;;;;;;;10.73;8.00;;;9.30;99.90;;;;;;5036565;28;20168;-66
2022/04/25 02:47:08;;;;;;;10.67;7.97;;;9.30;99.90;;;;;;5054711;28;20178;-67
2022/04/25 02:49:34;;;;;;;9.67;7.50;;;9.40;99.90;;;;;;5059360;28;20160;-66
2022/04/25 02:52:00;;;;;;;9.57;7.77;;;9.30;99.90;;;;;;5062592;28;20204;-66
2022/04/25 02:54:26;;;;;;;10.00;7.80;;;9.30;99.90;;;;;;5062583;28;20475;-67
2022/04/25 02:56:51;;;;;;;10.00;8.37;;;9.30;99.90;;;;;;5064432;28;20188;-66
2022/04/25 02:59:17;;;;;;;10.00;8.00;;;9.30;99.90;;;;;;5064757;28;20167;-66
2022/04/25 03:01:43;;;;;;;12.10;9.17;;;9.40;99.90;;;;;;5054007;28;20169;-67
2022/04/25 03:04:10;;;;;;;14.83;8.90;;;9.40;99.90;;;;;;5053687;28;20227;-67
2022/04/25 03:06:35;;;;;;;9.97;8.07;;;9.40;99.90;;;;;;5036136;28;20489;-67
2022/04/25 03:09:02;;;;;;;10.07;7.57;;;9.40;99.90;;;;;;5053663;28;20213;-66
2022/04/25 03:11:28;;;;;;;10.10;8.50;;;9.40;99.90;;;;;;5036102;28;20208;-67
2022/04/25 03:13:53;;;;;;;11.13;8.27;;;9.40;99.90;;;;;;5035622;28;20222;-66
2022/04/25 03:16:20;;;;;;;10.73;8.67;;;9.50;99.90;;;;;;5053508;28;20165;-66
2022/04/25 03:18:46;;;;;;;9.90;7.57;;;9.30;99.90;;;;;;5053482;28;20180;-66
2022/04/25 03:21:12;;;;;;;10.33;8.03;;;9.40;99.90;;;;;;5053279;28;20506;-66
2022/04/25 03:23:37;;;;;;;10.73;7.90;;;9.40;99.90;;;;;;5053548;28;20248;-66
2022/04/25 03:26:04;;;;;;;10.97;8.03;;;9.40;99.90;;;;;;5053175;28;20207;-67
2022/04/25 03:28:30;;;;;;;12.70;9.00;;;9.40;99.90;;;;;;5053340;28;20159;-66
2022/04/25 03:30:56;;;;;;;12.10;8.97;;;9.40;99.90;;;;;;5053717;28;20544;-65
2022/04/25 03:33:22;;;;;;;13.20;9.23;;;9.40;99.90;;;;;;5035559;28;20207;-66
2022/04/25 03:35:48;;;;;;;11.10;8.40;;;9.40;99.90;;;;;;5053673;28;20456;-66
2022/04/25 03:38:17;;;;;;;13.63;8.47;;;9.40;99.90;;;;;;5052984;28;20190;-67
2022/04/25 03:40:43;;;;;;;12.53;9.00;;;9.40;99.90;;;;;;5053341;28;20214;-67
2022/04/25 03:43:09;;;;;;;11.50;8.10;;;9.40;99.90;;;;;;5054297;28;20179;-67
2022/04/25 03:45:35;;;;;;;9.67;7.27;;;9.40;99.90;;;;;;5053791;28;20241;-66
2022/04/25 03:48:02;;;;;;;10.83;8.27;;;9.40;99.90;;;;;;5054186;28;20171;-66
2022/04/25 03:50:28;;;;;;;8.00;6.87;;;9.50;99.90;;;;;;5055573;28;20179;-67
2022/04/25 03:52:54;;;;;;;13.70;8.33;;;9.40;99.90;;;;;;5059247;28;20200;-67
2022/04/25 03:58:05;;;;;;;9.77;7.17;;;9.30;99.90;;;;;;5057867;28;20181;-66
2022/04/25 04:00:32;;;;;;;9.63;7.03;;;9.40;99.90;;;;;;5057503;28;20161;-66
2022/04/25 04:02:58;;;;;;;10.30;7.67;;;9.40;99.90;;;;;;5039740;28;20218;-67
2022/04/25 04:05:25;;;;;;;9.53;7.10;;;9.40;99.90;;;;;;5040952;28;20168;-67
2022/04/25 04:07:51;;;;;;;9.20;7.37;;;9.40;99.90;;;;;;5058994;28;20180;-69
2022/04/25 04:10:18;;;;;;;8.10;6.80;;;9.40;99.90;;;;;;5060185;28;20258;-67
2022/04/25 04:12:47;;;;;;;10.17;7.13;;;9.40;99.90;;;;;;5061232;28;20564;-68
2022/04/25 04:15:14;;;;;;;11.33;8.30;;;9.40;99.90;;;;;;5058238;28;20168;-67
2022/04/25 04:17:40;;;;;;;8.37;6.10;;;9.40;99.90;;;;;;5056816;28;20214;-67
2022/04/25 04:20:08;;;;;;;9.70;6.97;;;9.40;99.90;;;;;;5057231;28;20258;-69
2022/04/25 04:22:34;;;;;;;9.80;6.53;;;9.40;99.90;;;;;;5056782;28;20246;-67
2022/04/25 04:25:08;;;;;;;8.50;6.27;;;9.40;99.90;;;;;;5056837;28;20222;-67
2022/04/25 04:27:33;;;;;;;8.70;7.07;;;9.40;99.90;;;;;;5056171;28;20662;-67
2022/04/25 04:30:01;;;;;;;7.27;5.77;;;9.40;99.90;;;;;;5057310;28;20207;-66
2022/04/25 04:32:30;;;;;;;7.37;5.83;;;9.30;99.90;;;;;;5056718;28;20245;-68
2022/04/25 04:34:57;;;;;;;8.13;6.80;;;9.30;99.90;;;;;;5056880;28;20595;-67
2022/04/25 04:37:26;;;;;;;7.93;6.40;;;9.30;99.90;;;;;;5057064;28;20180;-67
2022/04/25 04:42:37;;;;;;;9.60;6.33;;;9.40;99.90;;;;;;5056491;28;20183;-68
2022/04/25 04:45:03;;;;;;;7.50;6.33;;;9.40;99.90;;;;;;5056193;28;20228;-67
2022/04/25 04:47:31;;;;;;;9.07;6.60;;;9.40;99.90;;;;;;5056881;28;20196;-68
2022/04/25 04:49:56;;;;;;;8.00;6.33;;;9.40;99.90;;;;;;5057067;28;20168;-67
2022/04/25 04:52:22;;;;;;;10.20;7.40;;;9.30;99.90;;;;;;5038804;28;20208;-68
2022/04/25 04:54:47;;;;;;;9.37;6.87;;;9.20;99.90;;;;;;5056464;28;20611;-67
2022/04/25 04:57:13;;;;;;;9.83;7.17;;;9.20;99.90;;;;;;5056802;28;20163;-68
2022/04/25 04:59:38;;;;;;;10.37;6.73;;;9.20;99.90;;;;;;5056842;28;20580;-68
2022/04/25 05:02:05;;;;;;;12.80;7.07;;;9.20;99.90;;;;;;5057847;28;20167;-68
2022/04/25 05:04:31;;;;;;;10.77;6.87;;;9.30;99.90;;;;;;5072309;28;20188;-66
2022/04/25 05:06:56;;;;;;;11.33;8.20;;;9.30;99.90;;;;;;5066292;28;20161;-68
2022/04/25 05:09:22;;;;;;;10.03;7.23;;;9.30;99.90;;;;;;5056935;28;20621;-68
2022/04/25 05:11:47;;;;;;;11.47;8.37;;;9.30;99.90;;;;;;5056316;28;20203;-67
2022/04/25 05:14:14;;;;;;;11.77;8.80;;;9.30;99.90;;;;;;5056598;28;20243;-69
2022/04/25 05:16:40;;;;;;;12.27;9.20;;;9.30;99.90;;;;;;5058476;28;20207;-68
2022/04/25 05:19:05;;;;;;;15.17;9.33;;;9.30;99.90;;;;;;5058864;28;20168;-67
2022/04/25 05:21:31;;;;;;;15.13;9.63;;;9.20;99.90;;;;;;5062968;28;20196;-66
2022/04/25 05:23:57;;;;;;;12.23;8.07;;;9.20;99.90;;;;;;5060666;28;20596;-69
2022/04/25 05:26:23;;;;;;;14.03;9.03;;;9.20;99.90;;;;;;5059783;28;20163;-68
2022/04/25 05:28:49;;;;;;;17.43;9.03;;;9.20;99.90;;;;;;5064314;28;20180;-69
2022/04/25 05:31:16;;;;;;;16.27;9.50;;;9.40;99.90;;;;;;5062255;28;20169;-67
2022/04/25 05:33:41;;;;;;;11.50;8.70;;;9.40;99.90;;;;;;5058987;28;20172;-68
2022/04/25 05:36:07;;;;;;;15.10;10.47;;;9.40;99.90;;;;;;5055807;28;20276;-65
2022/04/25 05:38:32;;;;;;;15.50;10.40;;;9.40;99.90;;;;;;5055213;28;20503;-68
2022/04/25 05:40:58;;;;;;;13.67;9.80;;;9.40;99.90;;;;;;5055255;28;20167;-69
2022/04/25 05:43:24;;;;;;;17.93;9.50;;;9.40;99.90;;;;;;5055102;28;20282;-68
2022/04/25 05:45:50;;;;;;;14.43;9.70;;;9.40;99.90;;;;;;5056151;28;20574;-69
2022/04/25 05:53:44;;;;;;;14.53;9.53;;;9.40;99.90;;;;;;5055843;28;20516;-68
2022/04/25 05:56:09;;;;;;;13.43;10.50;;;9.50;99.90;;;;;;5056103;28;20164;-67
2022/04/25 05:58:35;;;;;;;14.20;10.17;;;9.40;99.90;;;;;;5056031;28;20164;-67
2022/04/25 06:01:00;;;;;;;15.73;10.20;;;9.50;99.90;;;;;;5056007;28;20164;-67
2022/04/25 06:03:26;;;;;;;13.53;10.20;;;9.60;99.90;;;;;;5055097;28;20173;-67
2022/04/25 06:05:54;;;;;;;17.27;9.03;;;9.70;99.90;;;;;;5054670;28;20156;-67
2022/04/25 06:08:20;;;;;;;14.43;10.03;;;9.80;99.90;;;;;;5054444;28;20261;-67
2022/04/25 06:10:46;;;;;;;14.53;9.30;;;9.70;99.90;;;;;;5055179;28;20258;-66
2022/04/25 06:13:13;;;;;;;16.23;9.47;;;9.70;99.90;;;;;;5054179;28;20295;-68
2022/04/25 06:15:40;;;;;;;15.13;10.07;;;9.70;99.90;;;;;;5053556;28;20597;-67
2022/04/25 06:18:06;;;;;;;13.97;10.17;;;9.80;99.90;;;;;;5054899;28;20168;-67
2022/04/25 06:20:31;;;;;;;14.30;9.67;;;9.80;99.90;;;;;;5037739;28;20314;-67
2022/04/25 06:22:59;;;;;;;15.83;10.40;;;9.90;99.90;;;;;;5055006;28;20175;-66
2022/04/25 06:25:26;;;;;;;11.90;9.30;;;10.10;99.90;;;;;;5055842;28;20631;-67
2022/04/25 06:27:52;;;;;;;11.70;8.77;;;10.10;99.90;;;;;;5055188;28;20163;-69
2022/04/25 06:30:18;;;;;;;13.03;9.87;;;10.00;99.90;;;;;;5055254;28;20480;-68
2022/04/25 06:32:44;;;;;;;14.90;9.57;;;10.10;99.90;;;;;;5054316;28;20199;-67
2022/04/25 06:35:11;;;;;;;15.97;9.70;;;10.20;99.90;;;;;;5036440;28;20681;-68
2022/04/25 06:37:37;;;;;;;15.90;9.87;;;10.30;99.90;;;;;;5054899;28;20270;-67
2022/04/25 06:40:02;;;;;;;15.30;10.00;;;10.30;99.90;;;;;;5055787;28;20192;-67
2022/04/25 06:42:28;;;;;;;13.17;9.73;;;10.20;99.90;;;;;;5056983;28;20190;-67
2022/04/25 06:44:54;;;;;;;15.67;10.50;;;10.20;99.90;;;;;;5054175;28;20230;-67
2022/04/25 06:47:19;;;;;;;13.23;9.77;;;10.40;99.90;;;;;;5054035;28;20206;-66
2022/04/25 06:49:45;;;;;;;12.93;9.60;;;10.20;99.90;;;;;;5054155;28;20161;-67
2022/04/25 06:52:10;;;;;;;17.70;9.67;;;10.30;99.90;;;;;;5054473;28;20239;-68
2022/04/25 06:54:37;;;;;;;13.97;10.33;;;10.10;99.90;;;;;;5054100;28;20169;-66
2022/04/25 06:57:03;;;;;;;14.53;9.70;;;10.10;99.90;;;;;;5054871;28;20337;-67
2022/04/25 06:59:29;;;;;;;16.50;9.97;;;9.80;99.90;;;;;;5054093;28;20164;-68
2022/04/25 07:01:54;;;;;;;15.60;9.43;;;9.80;99.90;;;;;;5053682;28;20631;-68
2022/04/25 07:04:21;;;;;;;16.03;9.50;;;9.80;99.90;;;;;;5035813;28;20194;-68
2022/04/25 07:06:47;;;;;;;13.07;9.37;;;9.70;99.90;;;;;;5053968;28;20160;-69
2022/04/25 07:09:13;;;;;;;14.17;10.03;;;9.70;99.90;;;;;;5053523;28;20160;-69
2022/04/25 07:11:43;;;;;;;17.20;9.20;;;9.70;99.90;;;;;;5053516;28;20644;-68
2022/04/25 07:14:14;;;;;;;18.87;10.50;;;9.70;99.90;;;;;;5053865;28;20191;-67
2022/04/25 07:16:40;;;;;;;15.23;9.90;;;9.60;99.90;;;;;;5053515;28;20168;-66
2022/04/25 07:19:06;;;;;;;13.47;9.20;;;9.50;99.90;;;;;;5053306;28;20218;-67
2022/04/25 07:29:48;;;;;;;14.53;8.07;;;9.60;99.90;;;;;;5053397;28;20202;-66
2022/04/25 07:32:17;;;;;;;13.33;8.87;;;9.60;99.90;;;;;;5053774;28;20203;-68
2022/04/25 07:34:43;;;;;;;17.00;9.33;;;9.80;99.90;;;;;;5053817;28;20168;-66
2022/04/25 07:37:13;;;;;;;13.77;8.70;;;9.70;99.90;;;;;;5054499;28;20222;-68
2022/04/25 07:39:39;;;;;;;15.43;9.13;;;9.80;99.90;;;;;;5055562;28;20618;-68
2022/04/25 07:42:05;;;;;;;13.20;9.50;;;9.70;99.90;;;;;;5057261;28;20244;-66
2022/04/25 07:44:31;;;;;;;15.40;10.07;;;9.80;99.90;;;;;;5062441;28;20288;-67
2022/04/25 07:46:58;;;;;;;18.90;9.80;;;9.70;99.90;;;;;;5064736;28;20221;-67
2022/04/25 07:49:23;;;;;;;13.10;8.80;;;9.80;99.90;;;;;;5059546;28;20172;-68
2022/04/25 07:51:49;;;;;;;12.13;9.77;;;9.80;99.90;;;;;;5054013;28;20245;-68
2022/04/25 07:54:15;;;;;;;11.90;8.33;;;9.70;99.90;;;;;;5036438;28;20171;-68
2022/04/25 07:56:42;;;;;;;13.50;8.57;;;9.70;99.90;;;;;;5055405;28;20584;-68
2022/04/25 07:59:08;;;;;;;16.40;7.33;;;9.70;99.90;;;;;;5066372;28;20187;-66
2022/04/25 08:01:34;;;;;;;13.13;8.30;;;9.70;99.90;;;;;;5062362;28;20507;-68
2022/04/25 08:04:00;;;;;;;11.50;8.53;;;10.00;99.90;;;;;;5057929;28;20581;-72
2022/04/25 08:06:26;;;;;;;10.40;7.93;;;10.30;99.90;;;;;;5057607;28;20220;-68
2022/04/25 08:08:53;;;;;;;10.97;8.33;;;10.20;99.90;;;;;;5052571;28;20163;-68
2022/04/25 08:11:19;;;;;;;12.27;8.97;;;10.40;99.90;;;;;;5053150;28;20172;-68
2022/04/25 08:19:14;;;;;;;10.90;7.83;;;10.40;99.90;;;;;;5052567;28;20643;-66
2022/04/25 08:21:41;;;;;;;10.70;8.13;;;10.30;99.90;;;;;;5052536;28;20160;-67
2022/04/25 08:24:07;;;;;;;12.00;8.43;;;10.20;99.90;;;;;;5052833;28;20160;-67
2022/04/25 08:26:32;;;;;;;13.33;8.37;;;10.30;99.90;;;;;;5053212;28;20615;-67
2022/04/25 08:28:59;;;;;;;12.80;9.20;;;10.30;99.90;;;;;;5052641;28;20183;-67
2022/04/25 08:31:28;;;;;;;12.10;9.00;;;10.30;99.90;;;;;;5052741;28;20507;-68
2022/04/25 08:33:55;;;;;;;12.13;8.87;;;10.30;99.90;;;;;;5053114;28;20182;-66
2022/04/25 08:36:21;;;;;;;13.97;8.87;;;10.30;99.90;;;;;;5053177;28;20188;-66
2022/04/25 08:38:48;;;;;;;11.20;8.57;;;10.40;99.90;;;;;;5055334;28;20255;-68
2022/04/25 08:41:21;;;;;;;13.00;8.20;;;10.50;99.90;;;;;;5056289;28;20615;-67
2022/04/25 08:43:51;;;;;;;11.30;8.73;;;10.60;99.90;;;;;;5057235;28;20600;-67
2022/04/25 08:46:18;;;;;;;12.37;8.77;;;10.80;99.90;;;;;;5057399;28;20228;-66
2022/04/25 08:48:44;;;;;;;10.10;8.37;;;10.80;99.90;;;;;;5038787;28;20263;-67
2022/04/25 08:51:11;;;;;;;12.70;7.90;;;10.80;99.90;;;;;;5035596;28;20215;-67
2022/04/25 08:53:39;;;;;;;11.33;8.47;;;10.80;99.90;;;;;;5056655;28;20280;-67
2022/04/25 08:56:07;;;;;;;11.03;8.53;;;10.50;99.90;;;;;;5057061;28;20214;-72
2022/04/25 08:58:36;;;;;;;14.07;9.23;;;10.50;99.90;;;;;;5056634;28;20475;-66
2022/04/25 09:01:02;;;;;;;12.37;8.63;;;10.60;99.90;;;;;;5057516;28;20175;-67
2022/04/25 09:03:28;;;;;;;11.23;7.97;;;10.80;99.90;;;;;;5057105;28;20566;-66
2022/04/25 09:05:55;;;;;;;12.90;7.67;;;11.00;99.90;;;;;;5058191;28;20176;-65
2022/04/25 09:08:21;;;;;;;12.27;7.47;;;11.00;99.90;;;;;;5058647;28;20184;-66
2022/04/25 09:10:48;;;;;;;10.53;7.30;;;11.00;99.90;;;;;;5058044;28;20160;-66
2022/04/25 09:13:14;;;;;;;9.83;7.37;;;11.00;99.90;;;;;;5057419;28;20283;-69
2022/04/25 09:15:40;;;;;;;12.23;7.03;;;11.10;99.90;;;;;;5056880;28;20593;-68
2022/04/25 09:18:06;;;;;;;11.27;7.57;;;10.90;99.90;;;;;;5056807;28;20594;-66
2022/04/25 09:20:33;;;;;;;11.30;7.87;;;10.80;99.90;;;;;;5056402;28;20161;-66
2022/04/25 09:22:59;;;;;;;10.17;8.00;;;10.80;99.90;;;;;;5056139;28;20236;-66
2022/04/25 09:25:26;;;;;;;8.57;7.17;;;10.60;99.90;;;;;;5056085;28;20188;-65
2022/04/25 09:28:14;;;;;;;13.50;7.83;;;10.50;99.90;;;;;;5056823;28;20467;-67
2022/04/25 09:31:00;;;;;;;10.27;8.10;;;10.40;99.90;;;;;;5057887;28;20192;-67
2022/04/25 09:33:25;;;;;;;13.40;8.27;;;10.40;99.90;;;;;;5038507;28;20215;-66
2022/04/25 09:35:56;;;;;;;10.57;8.07;;;10.50;99.90;;;;;;5055567;28;20522;-68
2022/04/25 09:38:34;;;;;;;11.63;8.40;;;10.40;99.90;;;;;;5037464;28;20226;-67
2022/04/25 09:41:00;;;;;;;13.90;9.00;;;10.10;99.90;;;;;;5055460;28;20168;-65
2022/04/25 09:43:31;;;;;;;12.43;9.33;;;10.10;99.90;;;;;;5055112;28;20156;-66
2022/04/25 09:46:17;;;;;;;16.53;10.27;;;10.20;99.90;;;;;;5055206;28;20231;-68
2022/04/25 09:49:04;;;;;;;14.90;10.70;;;10.10;99.90;;;;;;5054939;28;20156;-66
2022/04/25 09:51:30;;;;;;;14.37;10.77;;;9.90;99.90;;;;;;5054931;28;20161;-66
2022/04/25 09:53:57;;;;;;;15.60;11.20;;;10.10;99.90;;;;;;5054936;28;20190;-65
2022/04/25 09:56:28;;;;;;;18.17;11.17;;;10.00;99.90;;;;;;5054968;28;20174;-67
2022/04/25 09:59:08;;;;;;;16.07;11.43;;;10.00;99.90;;;;;;5055254;28;20164;-66
2022/04/25 10:01:39;;;;;;;19.70;10.37;;;10.20;99.90;;;;;;5055053;28;20156;-66
2022/04/25 10:04:26;;;;;;;16.83;9.97;;;10.00;99.90;;;;;;5055654;28;20178;-66
2022/04/25 10:06:52;;;;;;;13.60;10.03;;;9.90;99.90;;;;;;5058705;28;20187;-65
2022/04/25 10:09:19;;;;;;;17.47;9.93;;;10.00;99.90;;;;;;5055331;28;20164;-66
2022/04/25 10:11:45;;;;;;;13.97;9.80;;;9.90;99.90;;;;;;5056436;28;20538;-66
2022/04/25 10:14:11;;;;;;;16.23;9.30;;;9.90;99.90;;;;;;5042200;28;20169;-65
2022/04/25 10:16:37;;;;;;;13.60;8.97;;;9.80;99.90;;;;;;5065060;28;20160;-66
2022/04/25 10:19:03;;;;;;;15.33;8.90;;;9.70;99.90;;;;;;5066857;28;20220;-65
2022/04/25 10:21:30;;;;;;;13.03;8.17;;;9.60;99.90;;;;;;5055994;28;20171;-66
2022/04/25 10:23:59;;;;;;;18.73;8.53;;;9.60;99.90;;;;;;5054715;28;20175;-66
2022/04/25 10:26:30;;;;;;;13.00;8.57;;;9.70;99.90;;;;;;5054448;28;20239;-66
2022/04/25 10:29:10;;;;;;;11.40;7.63;;;9.80;99.90;;;;;;5054420;28;20635;-66
2022/04/25 10:31:41;;;;;;;11.57;8.63;;;9.80;99.90;;;;;;5053920;28;20165;-66
2022/04/25 10:34:09;;;;;;;11.07;8.27;;;9.80;99.90;;;;;;5053686;28;20164;-66
2022/04/25 10:36:40;;;;;;;11.07;8.20;;;9.70;99.90;;;;;;5054766;28;20611;-67
2022/04/25 10:39:16;;;;;;;12.47;8.97;;;9.60;99.90;;;;;;5054189;28;20160;-66
2022/04/25 10:44:28;;;;;;;12.07;8.90;;;10.00;99.90;;;;;;5054062;28;20171;-65
2022/04/25 10:47:06;;;;;;;11.97;8.60;;;10.10;99.90;;;;;;5054523;28;20223;-65
2022/04/25 10:49:44;;;;;;;13.60;8.57;;;10.40;99.90;;;;;;5054240;28;20164;-67
2022/04/25 10:53:17;;;;;;;10.63;8.20;;;10.70;99.90;;;;;;5054683;28;20218;-66
2022/04/25 10:55:23;;;;;;;11.07;7.87;;;10.90;99.90;;;;;;5055524;28;20188;-68
2022/04/25 10:58:07;;;;;;;9.77;7.37;;;10.90;99.90;;;;;;5058491;28;20220;-67
2022/04/25 11:03:14;;;;;;;10.57;6.33;;;10.70;99.90;;;;;;5053692;28;20175;-66
2022/04/25 11:05:42;;;;;;;10.33;7.47;;;10.70;99.90;;;;;;5053687;28;20247;-65
2022/04/25 11:08:17;;;;;;;10.43;7.90;;;10.60;99.90;;;;;;5053210;28;20640;-66
2022/04/25 11:11:02;;;;;;;14.57;9.63;;;10.80;99.90;;;;;;5053557;28;20612;-66
2022/04/25 11:13:32;;;;;;;14.40;7.27;;;10.90;99.90;;;;;;5051887;28;20210;-66
2022/04/25 11:16:22;;;;;;;9.07;7.53;;;11.10;99.90;;;;;;5053514;28;20254;-67
2022/04/25 11:19:22;;;;;;;11.57;7.13;;;11.30;99.90;;;;;;5053682;28;20157;-67
2022/04/25 11:21:55;;;;;;;8.00;6.07;;;11.20;99.90;;;;;;5053339;28;20161;-65
2022/04/25 11:24:33;;;;;;;8.43;6.53;;;11.30;99.90;;;;;;5053171;28;20162;-66
2022/04/25 11:27:01;;;;;;;8.63;6.67;;;11.40;99.90;;;;;;5053605;28;20164;-67
2022/04/25 11:29:27;;;;;;;11.80;7.03;;;11.70;99.90;;;;;;5035030;28;20248;-66
2022/04/25 11:32:24;;;;;;;9.80;6.17;;;11.80;99.90;;;;;;5053407;28;20274;-67
2022/04/25 11:34:50;;;;;;;6.57;5.30;;;11.90;99.90;;;;;;5053397;28;20589;-66
2022/04/25 11:37:18;;;;;;;8.30;5.30;;;12.20;99.90;;;;;;5053568;28;20628;-66
2022/04/25 11:39:57;;;;;;;11.17;5.57;;;12.30;99.90;;;;;;5053036;28;20150;-66
2022/04/25 11:42:29;;;;;;;10.30;5.60;;;12.20;99.90;;;;;;5053504;28;20199;-66
2022/04/25 11:44:56;;;;;;;6.63;5.23;;;12.10;99.90;;;;;;5035266;28;20185;-67
2022/04/25 11:47:22;;;;;;;7.00;5.37;;;12.10;99.90;;;;;;5053225;28;20160;-66
2022/04/25 11:49:55;;;;;;;5.50;4.73;;;12.20;99.90;;;;;;5054057;28;20159;-66
2022/04/25 11:52:22;;;;;;;8.03;5.27;;;12.30;99.90;;;;;;5052900;28;20667;-67
2022/04/25 11:54:48;;;;;;;7.27;5.50;;;12.30;99.90;;;;;;5053043;28;20490;-66
2022/04/25 11:57:13;;;;;;;9.17;5.50;;;12.20;99.90;;;;;;5054187;28;20200;-67
2022/04/25 11:59:39;;;;;;;7.47;5.67;;;12.30;99.90;;;;;;5039454;28;20203;-66
2022/04/25 12:02:05;;;;;;;6.77;4.90;;;12.40;99.90;;;;;;5044426;28;20183;-68
2022/04/25 12:04:35;;;;;;;5.33;4.77;;;12.40;99.90;;;;;;5063126;28;20596;-66
2022/04/25 12:07:01;;;;;;;6.10;4.73;;;12.30;99.90;;;;;;5062582;28;20171;-68
2022/04/25 12:18:12;;;;;;;7.30;4.87;;;12.70;99.90;;;;;;5067686;28;20190;-66
2022/04/25 12:20:39;;;;;;;7.93;5.67;;;13.10;99.90;;;;;;5060217;28;20160;-67
2022/04/25 12:23:04;;;;;;;8.13;5.43;;;13.00;99.90;;;;;;5057547;28;20173;-65
2022/04/25 12:25:33;;;;;;;7.03;5.10;;;12.80;99.90;;;;;;5056001;28;20188;-66
2022/04/25 12:28:06;;;;;;;10.07;5.47;;;12.80;99.90;;;;;;5057633;28;20167;-67
2022/04/25 12:30:55;;;;;;;6.00;4.33;;;12.90;99.90;;;;;;5058268;28;20183;-68
2022/04/25 12:33:31;;;;;;;7.20;5.30;;;13.00;99.90;;;;;;5059027;28;20192;-67
2022/04/25 12:36:16;;;;;;;5.80;5.20;;;13.30;99.90;;;;;;5061037;28;20167;-67
2022/04/25 12:39:10;;;;;;;6.77;5.43;;;13.70;99.90;;;;;;5063556;28;20164;-67
2022/04/25 12:41:40;;;;;;;8.50;5.90;;;13.90;99.90;;;;;;5061463;28;20156;-69
2022/04/25 12:44:09;;;;;;;6.23;5.40;;;13.90;99.90;;;;;;5042648;28;20619;-67
2022/04/25 12:46:43;;;;;;;6.57;4.93;;;13.70;99.90;;;;;;5065609;28;20305;-68
2022/04/25 12:49:13;;;;;;;7.83;5.37;;;13.50;99.90;;;;;;5062265;28;20178;-65
2022/04/25 12:51:56;;;;;;;8.73;5.70;;;12.90;99.90;;;;;;5057494;28;20600;-66
2022/04/25 12:54:31;;;;;;;8.00;5.73;;;12.60;99.90;;;;;;5057607;28;20160;-66
2022/04/25 12:57:20;;;;;;;6.83;5.67;;;12.60;99.90;;;;;;5056337;28;20164;-67
2022/04/25 13:00:06;;;;;;;6.93;6.07;;;12.50;99.90;;;;;;5056161;28;20239;-66
2022/04/25 13:02:36;;;;;;;8.97;6.20;;;12.30;99.90;;;;;;5055840;28;20628;-66
2022/04/25 13:05:07;;;;;;;8.50;6.60;;;12.50;99.90;;;;;;5056394;28;20167;-67
2022/04/25 13:07:38;;;;;;;8.33;5.60;;;12.60;99.90;;;;;;5056571;28;20167;-66
2022/04/25 13:10:05;;;;;;;10.37;5.70;;;13.00;99.90;;;;;;5056526;28;20251;-66
2022/04/25 13:12:34;;;;;;;6.30;5.60;;;13.70;99.90;;;;;;5037935;28;20310;-66
2022/04/25 13:15:03;;;;;;;8.50;6.37;;;13.60;99.90;;;;;;5038929;28;20230;-66
2022/04/25 13:17:29;;;;;;;9.37;6.17;;;13.70;99.90;;;;;;5056495;28;20206;-67
2022/04/25 13:19:55;;;;;;;7.90;5.90;;;13.80;99.90;;;;;;5055698;28;20542;-67
2022/04/25 13:22:21;;;;;;;6.90;5.47;;;13.60;99.90;;;;;;5056457;28;20196;-67
2022/04/25 13:24:48;;;;;;;7.50;5.43;;;13.50;99.90;;;;;;5055899;28;20494;-67
2022/04/25 13:27:15;;;;;;;7.60;5.50;;;13.50;99.90;;;;;;5054571;28;20226;-68
2022/04/25 13:29:41;;;;;;;6.97;4.53;;;13.50;99.90;;;;;;5055919;28;20247;-68
2022/04/25 13:32:07;;;;;;;7.60;4.77;;;13.30;99.90;;;;;;5055843;28;20200;-67
2022/04/25 13:34:32;;;;;;;5.77;4.37;;;13.40;99.90;;;;;;5056950;28;20214;-66